Time;durP1;ratioP1;P1;durP2;ratioP2;P2;SDS_P1;SDS_P2;PMS_P1;PMS_P2;Temp;Humidity;BMP_temperature;BMP_pressure;BME280_temperature;BME280_humidity;BME280_pressure;Samples;Min_cycle;Max_cycle;Signal;HPM_P1;HPM_P2
2023/07/27 00:01:56;;;;;;;6.57;4.00;;;;;;;15.26;100.00;100888.63;4952647;29;20298;-96
2023/07/27 00:04:24;;;;;;;8.30;4.30;;;;;;;15.16;100.00;100887.91;4955850;29;20055;-95
2023/07/27 00:06:50;;;;;;;11.18;4.43;;;;;;;15.09;100.00;100885.56;4947730;29;20019;-95
2023/07/27 00:09:17;;;;;;;8.60;4.32;;;;;;;14.74;100.00;100841.69;4946042;29;20056;-95
2023/07/27 00:11:55;;;;;;;6.40;4.20;;;;;;;14.97;100.00;100889.44;4948245;29;20023;-96
2023/07/27 00:14:21;;;;;;;7.47;4.30;;;;;;;14.66;100.00;100829.59;4946285;29;20283;-95
2023/07/27 00:16:48;;;;;;;5.88;4.03;;;;;;;14.80;100.00;100854.03;4945210;29;20484;-96
2023/07/27 00:19:16;;;;;;;8.18;4.53;;;;;;;14.73;100.00;100853.56;4957848;29;20027;-96
2023/07/27 00:21:41;;;;;;;7.20;4.32;;;;;;;14.90;100.00;100874.69;4951355;29;20063;-94
2023/07/27 00:24:10;;;;;;;7.00;4.00;;;;;;;14.62;100.00;100837.44;4951270;29;20031;-95
2023/07/27 00:26:37;;;;;;;8.32;4.30;;;;;;;14.87;100.00;100870.69;4958658;29;20043;-96
2023/07/27 00:29:03;;;;;;;7.38;4.28;;;;;;;14.88;100.00;100861.50;4949914;29;20032;-96
2023/07/27 00:31:30;;;;;;;6.90;4.47;;;;;;;14.75;100.00;100837.91;4949616;29;20032;-96
2023/07/27 00:34:04;;;;;;;7.70;4.93;;;;;;;14.78;100.00;100845.44;4931618;29;20034;-94
2023/07/27 00:36:29;;;;;;;5.40;4.15;;;;;;;14.72;100.00;100835.78;4944876;29;20087;-94
2023/07/27 00:38:55;;;;;;;7.73;4.17;;;;;;;14.59;100.00;100837.22;4944109;29;20032;-94
2023/07/27 00:41:20;;;;;;;6.40;4.13;;;;;;;14.64;100.00;100840.66;4941286;29;20402;-95
2023/07/27 00:43:46;;;;;;;7.67;4.40;;;;;;;14.56;100.00;100825.13;4939543;29;20028;-94
2023/07/27 00:46:11;;;;;;;6.87;4.17;;;;;;;14.46;100.00;100812.53;4938188;29;20062;-94
2023/07/27 00:48:39;;;;;;;7.93;4.45;;;;;;;14.67;100.00;100844.69;4939051;29;20111;-94
2023/07/27 00:51:06;;;;;;;7.07;4.60;;;;;;;14.72;100.00;100833.88;4937574;29;20028;-94
2023/07/27 00:53:32;;;;;;;6.67;4.20;;;;;;;14.62;100.00;100823.16;4939416;29;20027;-93
2023/07/27 00:55:59;;;;;;;9.80;4.70;;;;;;;14.58;100.00;100822.13;4938336;29;20288;-93
2023/07/27 00:58:31;;;;;;;8.32;4.45;;;;;;;14.42;100.00;100799.91;4938261;29;20087;-94
2023/07/27 01:01:01;;;;;;;5.70;4.25;;;;;;;14.58;100.00;100824.81;4937900;29;20086;-93
2023/07/27 01:03:27;;;;;;;8.93;4.68;;;;;;;14.34;100.00;100785.97;4936971;29;20032;-93
2023/07/27 01:05:58;;;;;;;9.30;4.40;;;;;;;14.57;100.00;100818.63;4936943;29;20035;-93
2023/07/27 01:08:23;;;;;;;5.67;4.00;;;;;;;14.40;100.00;100792.09;4936235;28;20294;-93
2023/07/27 01:10:57;;;;;;;7.78;4.15;;;;;;;14.52;100.00;100808.69;4937462;29;20024;-93
2023/07/27 01:13:43;;;;;;;7.30;4.33;;;;;;;14.46;100.00;100803.63;4938104;29;20019;-93
2023/07/27 01:16:33;;;;;;;7.53;4.50;;;;;;;14.17;100.00;100772.91;4937650;29;20290;-92
2023/07/27 01:19:49;;;;;;;6.13;4.20;;;;;;;14.08;100.00;100758.44;4936410;29;20031;-93
2023/07/27 01:22:33;;;;;;;8.45;4.32;;;;;;;14.33;100.00;100797.03;4920448;29;20048;-92
2023/07/27 01:25:29;;;;;;;9.18;5.18;;;;;;;14.18;100.00;100766.41;4938432;29;20032;-92
2023/07/27 01:28:19;;;;;;;7.30;4.93;;;;;;;14.36;100.00;100796.44;4943683;23;20082;-92
2023/07/27 01:30:50;;;;;;;9.13;5.40;;;;;;;14.39;100.00;100787.78;4934976;29;20047;-92
2023/07/27 01:33:22;;;;;;;11.18;5.85;;;;;;;14.26;100.00;100765.00;4936265;29;20031;-92
2023/07/27 01:36:00;;;;;;;8.23;4.95;;;;;;;14.26;100.00;100770.38;4935322;29;20032;-91
2023/07/27 01:38:28;;;;;;;9.65;6.28;;;;;;;14.36;100.00;100782.97;4946513;29;20091;-92
2023/07/27 01:40:56;;;;;;;9.57;5.33;;;;;;;14.25;100.00;100763.38;4947171;29;20148;-90
2023/07/27 01:43:27;;;;;;;10.37;6.27;;;;;;;14.32;100.00;100774.66;4938195;29;20287;-92
2023/07/27 01:45:53;;;;;;;9.50;6.00;;;;;;;14.05;100.00;100730.19;4955196;28;20026;-91
2023/07/27 01:48:19;;;;;;;13.60;6.30;;;;;;;14.10;100.00;100726.63;4937602;29;20027;-90
2023/07/27 01:50:51;;;;;;;11.02;5.78;;;;;;;13.96;100.00;100707.63;4936533;29;20115;-90
2023/07/27 01:53:18;;;;;;;10.75;6.03;;;;;;;14.29;100.00;100752.88;4936194;29;20062;-91
2023/07/27 01:55:46;;;;;;;10.80;6.35;;;;;;;14.11;100.00;100725.56;4936403;29;20028;-91
2023/07/27 01:58:27;;;;;;;10.80;6.07;;;;;;;14.18;100.00;100742.16;4934776;29;20118;-91
2023/07/27 02:00:55;;;;;;;10.88;6.20;;;;;;;14.14;100.00;100735.75;4914715;29;20056;-92
2023/07/27 02:03:21;;;;;;;8.63;5.88;;;;;;;14.16;100.00;100728.19;4933681;29;20051;-92
2023/07/27 02:05:46;;;;;;;10.20;5.87;;;;;;;14.09;100.00;100720.44;4935362;29;20031;-91
2023/07/27 02:08:12;;;;;;;9.23;6.27;;;;;;;14.19;100.00;100729.50;4935642;29;20288;-91
2023/07/27 02:10:40;;;;;;;12.43;6.37;;;;;;;14.18;100.00;100722.53;4934912;29;20035;-90
2023/07/27 02:13:14;;;;;;;9.63;6.05;;;;;;;14.18;100.00;100717.13;4935425;29;20042;-92
2023/07/27 02:15:46;;;;;;;11.80;6.53;;;;;;;14.17;100.00;100715.53;4934855;29;20087;-91
2023/07/27 02:18:18;;;;;;;15.50;6.10;;;;;;;14.16;100.00;100713.91;4936031;29;20030;-90
2023/07/27 02:20:44;;;;;;;11.77;6.80;;;;;;;14.15;100.00;100699.63;4934841;29;20035;-92
2023/07/27 02:23:11;;;;;;;10.57;6.50;;;;;;;14.14;100.00;100694.53;4936281;29;20314;-91
2023/07/27 02:25:37;;;;;;;11.73;6.63;;;;;;;14.15;100.00;100682.66;4936433;29;20178;-92
2023/07/27 02:28:03;;;;;;;10.75;6.45;;;;;;;14.08;100.00;100667.63;4937448;29;20051;-93
2023/07/27 02:30:28;;;;;;;14.87;6.70;;;;;;;14.14;100.00;100675.66;4938218;29;20028;-92
2023/07/27 02:32:53;;;;;;;11.20;6.85;;;;;;;14.06;100.00;100667.09;4939790;29;20015;-92
2023/07/27 02:35:20;;;;;;;9.97;6.57;;;;;;;13.96;100.00;100651.06;4939555;29;20032;-92
2023/07/27 02:37:45;;;;;;;10.73;6.72;;;;;;;13.96;100.00;100656.44;4938241;29;20086;-92
2023/07/27 02:40:11;;;;;;;13.20;6.80;;;;;;;13.96;100.00;100664.53;4939118;29;20027;-91
2023/07/27 02:42:36;;;;;;;10.07;6.20;;;;;;;13.95;100.00;100657.53;4937717;29;20055;-91
2023/07/27 02:45:01;;;;;;;13.88;6.78;;;;;;;13.85;100.00;100644.97;4938367;29;20030;-91
2023/07/27 02:47:27;;;;;;;12.37;6.40;;;;;;;13.84;100.00;100637.19;4937259;29;20076;-91
2023/07/27 02:49:52;;;;;;;11.47;6.57;;;;;;;13.97;100.00;100651.88;4938441;29;20037;-90
2023/07/27 02:52:17;;;;;;;10.43;6.72;;;;;;;13.91;100.00;100640.31;4937693;29;20046;-91
2023/07/27 02:54:43;;;;;;;11.40;6.87;;;;;;;13.76;100.00;100619.75;4937574;29;20024;-90
2023/07/27 02:57:08;;;;;;;11.73;6.93;;;;;;;13.77;100.00;100629.44;4936779;29;20039;-90
2023/07/27 02:59:34;;;;;;;13.90;7.83;;;;;;;13.83;100.00;100638.28;4951371;29;20031;-90
2023/07/27 03:01:59;;;;;;;13.10;7.60;;;;;;;13.83;100.00;100638.28;4938678;29;20036;-90
2023/07/27 03:04:24;;;;;;;16.08;6.97;;;;;;;13.73;100.00;100628.41;4951852;29;20012;-88
2023/07/27 03:06:50;;;;;;;13.03;7.13;;;;;;;13.77;100.00;100629.44;4952399;29;20031;-91
2023/07/27 03:09:15;;;;;;;11.67;7.07;;;;;;;13.63;100.00;100608.53;4938579;29;20075;-91
2023/07/27 03:11:40;;;;;;;16.23;7.80;;;;;;;13.75;100.00;100615.47;4937915;29;20091;-90
2023/07/27 03:14:06;;;;;;;12.83;7.43;;;;;;;13.71;100.00;100607.13;4938680;29;20020;-89
2023/07/27 03:16:31;;;;;;;18.80;8.23;;;;;;;13.75;100.00;100616.25;4939543;29;20515;-89
2023/07/27 03:18:57;;;;;;;15.50;8.20;;;;;;;13.74;100.00;100609.25;4940602;29;20503;-90
2023/07/27 03:21:22;;;;;;;12.93;7.78;;;;;;;13.68;100.00;100588.06;4938589;29;20019;-89
2023/07/27 03:23:49;;;;;;;13.50;7.73;;;;;;;13.75;100.00;100602.78;4940175;29;20038;-91
2023/07/27 03:26:15;;;;;;;12.98;7.65;;;;;;;13.68;100.00;100580.78;4939976;29;20032;-91
2023/07/27 03:28:40;;;;;;;13.83;7.97;;;;;;;13.82;100.00;100590.88;4944897;29;20043;-92
2023/07/27 03:31:32;;;;;;;13.63;8.33;;;;;;;13.78;100.00;100580.69;4940365;29;20362;-91
2023/07/27 03:33:57;;;;;;;13.57;8.63;;;;;;;13.69;100.00;100562.72;4936566;28;20118;-91
2023/07/27 03:36:22;;;;;;;15.23;8.47;;;;;;;13.70;100.00;100553.56;4935879;29;20051;-91
2023/07/27 03:38:48;;;;;;;14.87;8.90;;;;;;;13.75;100.00;100556.22;4937692;29;20024;-90
2023/07/27 03:41:13;;;;;;;19.53;9.07;;;;;;;13.72;100.00;100549.50;4936878;29;20034;-90
2023/07/27 03:43:39;;;;;;;13.30;8.68;;;;;;;13.72;100.00;100537.94;4935269;29;20047;-90
2023/07/27 03:46:04;;;;;;;14.40;8.13;;;;;;;13.73;100.00;100539.53;4936415;29;20023;-91
2023/07/27 03:48:31;;;;;;;14.80;8.83;;;;;;;13.71;100.00;100530.94;4936977;29;20083;-91
2023/07/27 03:51:03;;;;;;;15.80;8.98;;;;;;;13.62;100.00;100512.72;4936721;29;20027;-91
2023/07/27 03:53:29;;;;;;;11.20;9.02;;;;;;;13.47;100.00;100489.47;4936643;29;20683;-90
2023/07/27 03:55:55;;;;;;;13.27;8.63;;;;;;;13.59;100.00;100509.78;4935783;29;20492;-90
2023/07/27 03:58:20;;;;;;;13.53;8.17;;;;;;;13.53;100.00;100500.97;4936639;29;20290;-91
2023/07/27 04:00:46;;;;;;;14.07;7.90;;;;;;;13.68;100.00;100515.34;4936474;29;20148;-91
2023/07/27 04:03:11;;;;;;;14.20;8.33;;;;;;;13.68;100.00;100504.59;4936622;29;20035;-90
2023/07/27 04:05:36;;;;;;;12.93;7.57;;;;;;;13.68;100.00;100508.09;4934666;28;20428;-90
2023/07/27 04:08:02;;;;;;;11.87;8.43;;;;;;;13.67;100.00;100506.50;4936163;29;20088;-90
2023/07/27 04:10:31;;;;;;;12.50;7.47;;;;;;;13.52;100.00;100477.03;4935602;29;20028;-91
2023/07/27 04:12:57;;;;;;;12.13;7.53;;;;;;;13.48;100.00;100474.94;4935445;28;20323;-90
2023/07/27 04:15:26;;;;;;;14.35;8.35;;;;;;;13.67;100.00;100509.19;4936190;29;20110;-90
2023/07/27 04:17:51;;;;;;;10.38;6.85;;;;;;;13.58;100.00;100492.03;4942248;29;20016;-90
2023/07/27 04:20:16;;;;;;;9.13;6.43;;;;;;;13.70;100.00;100515.88;4950805;29;20035;-91
2023/07/27 04:22:43;;;;;;;8.97;6.10;;;;;;;13.59;100.00;100478.31;4936952;29;20306;-90
2023/07/27 04:25:09;;;;;;;10.90;6.43;;;;;;;13.72;100.00;100489.47;4949728;29;20044;-90
2023/07/27 04:27:34;;;;;;;12.47;5.93;;;;;;;13.78;100.00;100491.03;4944862;29;20024;-90
2023/07/27 04:30:00;;;;;;;6.53;5.10;;;;;;;13.73;100.00;100477.63;4938670;29;20295;-89
2023/07/27 04:32:25;;;;;;;7.27;4.80;;;;;;;13.78;100.00;100482.94;4942377;29;20027;-91
2023/07/27 04:34:51;;;;;;;6.30;4.80;;;;;;;13.73;100.00;100472.22;4948923;29;20060;-90
2023/07/27 04:37:16;;;;;;;6.80;5.40;;;;;;;13.74;100.00;100463.84;4958333;29;20012;-90
2023/07/27 04:39:42;;;;;;;7.80;5.20;;;;;;;13.80;100.00;100472.66;4959418;29;20058;-91
2023/07/27 04:42:07;;;;;;;6.30;4.63;;;;;;;13.70;100.00;100445.88;4959528;29;20023;-90
2023/07/27 04:44:33;;;;;;;7.67;4.93;;;;;;;13.82;100.00;100456.22;4959254;29;20271;-91
2023/07/27 04:46:58;;;;;;;9.47;6.00;;;;;;;13.60;100.00;100425.25;4959230;29;20039;-91
2023/07/27 04:49:23;;;;;;;7.33;4.90;;;;;;;13.58;100.00;100422.06;4959287;29;20011;-90
2023/07/27 04:51:49;;;;;;;8.18;5.18;;;;;;;13.83;100.00;100457.84;4956678;29;20099;-91
2023/07/27 04:54:14;;;;;;;7.87;4.73;;;;;;;13.82;100.00;100448.94;4951193;29;20022;-90
2023/07/27 04:56:39;;;;;;;6.90;5.10;;;;;;;13.87;100.00;100443.50;4956205;29;20027;-90
2023/07/27 04:59:05;;;;;;;6.73;4.93;;;;;;;13.78;100.00;100429.88;4947763;29;20031;-91
2023/07/27 05:01:30;;;;;;;8.77;5.33;;;;;;;13.85;100.00;100434.91;4938107;29;20087;-91
2023/07/27 05:03:55;;;;;;;8.13;5.23;;;;;;;13.91;100.00;100441.84;4935975;29;20150;-91
2023/07/27 05:06:21;;;;;;;6.20;4.87;;;;;;;13.92;100.00;100445.31;4935605;29;20122;-91
2023/07/27 05:08:46;;;;;;;5.27;4.23;;;;;;;13.92;100.00;100431.84;4935914;29;20972;-90
2023/07/27 05:11:11;;;;;;;6.93;4.63;;;;;;;13.95;100.00;100433.19;4936096;29;20047;-91
2023/07/27 05:13:37;;;;;;;6.70;5.00;;;;;;;13.88;100.00;100420.06;4936066;29;20031;-91
2023/07/27 05:16:02;;;;;;;7.43;5.10;;;;;;;13.80;100.00;100396.47;4937602;29;20063;-92
2023/07/27 05:18:28;;;;;;;8.80;4.45;;;;;;;13.90;100.00;100405.22;4939690;29;20020;-91
2023/07/27 05:20:54;;;;;;;6.35;4.88;;;;;;;13.98;100.00;100408.34;4954789;29;20032;-91
2023/07/27 05:23:19;;;;;;;5.70;4.87;;;;;;;13.81;100.00;100385.41;4958141;28;20095;-90
2023/07/27 05:25:47;;;;;;;5.30;4.60;;;;;;;14.02;100.00;100403.97;4958920;29;20027;-91
2023/07/27 05:28:12;;;;;;;6.80;5.20;;;;;;;14.00;100.00;100395.38;4958937;29;20020;-91
2023/07/27 05:30:37;;;;;;;5.80;4.80;;;;;;;14.14;100.00;100411.63;4959152;29;20027;-90
2023/07/27 05:33:03;;;;;;;5.23;4.50;;;;;;;14.11;100.00;100396.03;4959414;29;20076;-91
2023/07/27 05:35:28;;;;;;;6.32;4.85;;;;;;;14.12;100.00;100389.56;4958471;29;20035;-91
2023/07/27 05:37:54;;;;;;;4.97;3.97;;;;;;;14.21;100.00;100404.78;4942275;29;20043;-90
2023/07/27 05:40:19;;;;;;;4.93;4.30;;;;;;;14.19;100.00;100396.19;4954754;29;20043;-91
2023/07/27 05:42:45;;;;;;;6.03;4.10;;;;;;;14.27;100.00;100393.94;4935749;29;20487;-90
2023/07/27 05:45:10;;;;;;;5.70;3.73;;;;;;;14.37;100.00;100399.97;4946064;29;20027;-91
2023/07/27 05:47:36;;;;;;;5.32;4.28;;;;;;;14.36;100.00;100387.56;4948133;29;20372;-90
2023/07/27 05:50:02;;;;;;;4.93;3.90;;;;;;;14.19;100.00;100361.16;4946083;29;20020;-91
2023/07/27 05:52:27;;;;;;;6.45;4.00;;;;;;;14.27;100.00;100361.59;4952963;29;20035;-91
2023/07/27 05:54:53;;;;;;;4.72;3.97;;;;;;;14.29;100.00;100365.59;4951441;29;20027;-90
2023/07/27 05:57:18;;;;;;;4.60;4.00;;;;;;;14.41;100.00;100373.22;4954437;29;20225;-92
2023/07/27 05:59:43;;;;;;;4.90;3.70;;;;;;;14.57;100.00;100383.75;4957643;29;20040;-92
2023/07/27 06:02:09;;;;;;;4.23;3.67;;;;;;;14.49;100.00;100369.84;4957299;29;20023;-92
2023/07/27 06:04:34;;;;;;;4.20;3.80;;;;;;;14.69;100.00;100381.41;4956150;29;20015;-92
2023/07/27 06:06:59;;;;;;;5.13;4.00;;;;;;;14.60;100.00;100373.19;4958994;29;20042;-92
2023/07/27 06:09:25;;;;;;;4.80;3.73;;;;;;;14.68;100.00;100375.22;4960137;29;20081;-92
2023/07/27 06:11:52;;;;;;;5.97;3.60;;;;;;;14.76;100.00;100381.03;4962036;29;20004;-92
2023/07/27 06:14:18;;;;;;;4.25;3.35;;;;;;;14.80;100.00;100384.72;4961839;29;20067;-92
2023/07/27 06:16:43;;;;;;;4.07;3.35;;;;;;;14.82;100.00;100374.44;4961672;29;20014;-92
2023/07/27 06:19:09;;;;;;;4.87;3.67;;;;;;;14.86;100.00;100359.25;4950878;29;20028;-93
2023/07/27 06:21:34;;;;;;;4.80;3.47;;;;;;;14.89;100.00;100366.75;4938299;29;20039;-92
2023/07/27 06:24:00;;;;;;;3.55;3.20;;;;;;;15.03;100.00;100371.38;4938358;29;20016;-92
2023/07/27 06:26:25;;;;;;;4.33;3.37;;;;;;;15.05;100.00;100359.19;4937282;29;20024;-93
2023/07/27 06:28:50;;;;;;;3.50;3.20;;;;;;;15.11;100.00;100365.28;4937855;29;20032;-93
2023/07/27 06:31:16;;;;;;;4.77;3.30;;;;;;;15.18;100.00;100362.97;4937472;29;20036;-92
2023/07/27 06:33:41;;;;;;;4.15;3.63;;;;;;;15.09;100.00;100348.59;4937411;29;20038;-92
2023/07/27 06:36:14;;;;;;;3.53;3.23;;;;;;;15.29;100.00;100358.97;4936807;29;20024;-93
2023/07/27 06:38:39;;;;;;;3.85;3.08;;;;;;;15.39;100.00;100354.47;4935846;29;20027;-94
2023/07/27 06:41:05;;;;;;;3.67;3.00;;;;;;;15.44;100.00;100360.53;4938250;29;20027;-94
2023/07/27 06:43:30;;;;;;;3.37;2.93;;;;;;;15.49;100.00;100362.38;4937160;29;20024;-92
2023/07/27 06:45:55;;;;;;;2.65;2.40;;;;;;;15.45;100.00;100350.56;4937902;29;20083;-93
2023/07/27 06:48:21;;;;;;;2.80;2.60;;;;;;;15.55;100.00;100365.75;4937761;29;20023;-93
2023/07/27 06:50:46;;;;;;;2.57;2.37;;;;;;;15.43;100.00;100344.66;4937389;29;20087;-93
2023/07/27 06:53:12;;;;;;;3.22;2.90;;;;;;;15.36;100.00;100331.56;4937525;29;20033;-94
2023/07/27 06:55:37;;;;;;;3.00;2.70;;;;;;;15.43;100.00;100358.94;4935944;29;20035;-92
2023/07/27 06:58:02;;;;;;;4.10;2.77;;;;;;;15.53;100.00;100357.94;4937266;29;20377;-93
2023/07/27 07:00:28;;;;;;;3.17;2.87;;;;;;;15.58;100.00;100357.84;4959286;29;20089;-94
2023/07/27 07:02:53;;;;;;;2.87;2.67;;;;;;;15.45;100.00;100345.94;4939973;29;20063;-93
2023/07/27 07:05:18;;;;;;;2.50;2.30;;;;;;;15.55;100.00;100363.84;4942661;29;20031;-93
2023/07/27 07:07:44;;;;;;;2.73;2.43;;;;;;;15.41;100.00;100338.75;4955104;29;20136;-93
2023/07/27 07:10:09;;;;;;;3.57;2.80;;;;;;;15.54;100.00;100356.84;4940479;29;20040;-92
2023/07/27 07:12:35;;;;;;;2.70;2.50;;;;;;;15.64;100.00;100360.44;4936915;29;20031;-94
2023/07/27 07:15:01;;;;;;;3.47;2.83;;;;;;;15.71;100.00;100367.00;4938384;29;20056;-93
2023/07/27 07:20:05;;;;;;;3.20;2.90;;;;;;;15.73;100.00;100362.13;5782708;23;20330;-93
2023/07/27 07:22:30;;;;;;;3.28;2.80;;;;;;;15.68;100.00;100362.22;4920058;29;20039;-93
2023/07/27 07:24:55;;;;;;;4.60;3.35;;;;;;;15.75;100.00;100369.91;4918273;29;20024;-93
2023/07/27 07:27:21;;;;;;;3.70;3.20;;;;;;;15.78;100.00;100357.72;4918520;29;20051;-93
2023/07/27 07:29:46;;;;;;;3.63;3.30;;;;;;;15.83;100.00;100344.88;4918783;29;20455;-94
2023/07/27 07:32:12;;;;;;;4.03;3.50;;;;;;;16.02;100.00;100352.06;4918679;29;20031;-93
2023/07/27 07:34:37;;;;;;;4.47;3.73;;;;;;;16.07;100.00;100356.53;4918227;29;20016;-93
2023/07/27 07:37:02;;;;;;;3.37;3.07;;;;;;;16.02;100.00;100333.13;4917931;29;20313;-93
2023/07/27 07:39:28;;;;;;;3.70;3.40;;;;;;;16.31;100.00;100356.22;4918374;29;20124;-94
2023/07/27 07:41:53;;;;;;;5.07;3.73;;;;;;;16.49;100.00;100335.50;4917829;29;20415;-94
2023/07/27 07:44:18;;;;;;;3.97;3.50;;;;;;;16.70;100.00;100335.78;4917955;29;20024;-93
2023/07/27 07:46:44;;;;;;;3.90;3.57;;;;;;;16.90;100.00;100339.81;4917266;29;20377;-94
2023/07/27 07:49:09;;;;;;;4.07;2.70;;;;;;;16.88;100.00;100330.44;4917038;29;20280;-93
2023/07/27 07:51:35;;;;;;;3.30;2.73;;;;;;;16.93;100.00;100335.72;4917439;29;20032;-94
2023/07/27 07:54:00;;;;;;;3.10;2.80;;;;;;;17.01;100.00;100336.88;4917385;29;20024;-93
2023/07/27 07:56:25;;;;;;;2.40;2.20;;;;;;;16.90;100.00;100341.75;4916927;29;20099;-94
2023/07/27 07:58:51;;;;;;;1.87;1.70;;;;;;;16.79;100.00;100341.22;4917384;29;20511;-92
2023/07/27 08:01:16;;;;;;;2.60;2.13;;;;;;;16.80;100.00;100329.28;4917386;29;20012;-93
2023/07/27 08:03:41;;;;;;;2.60;2.33;;;;;;;16.85;100.00;100331.06;4917581;29;20028;-94
2023/07/27 08:06:07;;;;;;;3.35;2.47;;;;;;;16.86;100.00;100335.34;4916806;29;20012;-94
2023/07/27 08:08:33;;;;;;;4.00;2.37;;;;;;;16.72;100.00;100319.22;4917394;29;20028;-94
2023/07/27 08:11:03;;;;;;;2.88;2.67;;;;;;;16.92;100.00;100344.94;4917208;29;20036;-93
2023/07/27 08:13:30;;;;;;;3.13;2.67;;;;;;;16.79;100.00;100335.81;4917200;29;20109;-93
2023/07/27 08:15:55;;;;;;;3.87;2.33;;;;;;;16.83;100.00;100325.16;4915568;29;20036;-93
2023/07/27 08:18:20;;;;;;;2.50;2.30;;;;;;;16.89;100.00;100319.28;4917641;29;20649;-93
2023/07/27 08:21:03;;;;;;;3.33;2.60;;;;;;;17.08;100.00;100332.59;4936529;29;20024;-94
2023/07/27 08:23:29;;;;;;;2.67;2.47;;;;;;;17.12;100.00;100337.41;4916117;29;20028;-94
2023/07/27 08:25:56;;;;;;;3.13;2.40;;;;;;;17.08;100.00;100324.50;4922385;29;20084;-94
2023/07/27 08:28:21;;;;;;;2.90;2.67;;;;;;;17.15;100.00;100334.06;4930066;29;20032;-94
2023/07/27 08:30:47;;;;;;;2.43;2.23;;;;;;;17.17;100.00;100329.94;4916896;29;20291;-94
2023/07/27 08:33:13;;;;;;;2.88;2.67;;;;;;;17.36;100.00;100318.81;4916571;29;20047;-94
2023/07/27 08:35:39;;;;;;;3.30;2.53;;;;;;;17.53;100.00;100319.94;4916228;29;20472;-93
2023/07/27 08:38:04;;;;;;;3.03;2.72;;;;;;;17.66;100.00;100329.84;4914706;29;20071;-94
2023/07/27 08:40:30;;;;;;;3.27;2.17;;;;;;;17.56;100.00;100332.84;4916685;29;20051;-94
2023/07/27 08:42:55;;;;;;;3.35;2.13;;;;;;;17.43;100.00;100304.81;4916622;29;20040;-94
2023/07/27 08:45:21;;;;;;;2.40;2.20;;;;;;;17.50;100.00;100313.25;4916586;29;20067;-93
2023/07/27 08:47:52;;;;;;;2.50;2.30;;;;;;;17.73;100.00;100323.13;4916492;29;20043;-94
2023/07/27 08:50:19;;;;;;;2.20;2.10;;;;;;;17.67;100.00;100325.22;4917520;29;20047;-94
2023/07/27 08:52:45;;;;;;;3.67;1.90;;;;;;;17.73;100.00;100329.38;4919369;29;20036;-94
2023/07/27 08:55:10;;;;;;;1.90;1.80;;;;;;;17.61;100.00;100313.75;4917352;29;20389;-94
2023/07/27 08:57:36;;;;;;;2.15;2.00;;;;;;;17.75;100.00;100320.91;4916189;29;20365;-94
2023/07/27 09:00:02;;;;;;;2.53;2.13;;;;;;;17.70;100.00;100322.69;4915520;29;20024;-94
2023/07/27 09:02:27;;;;;;;3.97;2.22;;;;;;;17.80;100.00;100307.22;4915670;29;20542;-94
2023/07/27 09:04:53;;;;;;;2.10;2.00;;;;;;;17.79;100.00;100314.56;4916813;29;20024;-94
2023/07/27 09:07:18;;;;;;;1.80;1.70;;;;;;;17.67;100.00;100320.63;4914474;29;20024;-95
2023/07/27 09:09:53;;;;;;;1.90;1.80;;;;;;;17.67;100.00;100328.75;4918235;29;20088;-95
2023/07/27 09:12:22;;;;;;;3.63;1.77;;;;;;;17.72;100.00;100316.94;4919101;29;20648;-94
2023/07/27 09:14:48;;;;;;;2.40;1.90;;;;;;;17.81;100.00;100308.81;4921135;29;20084;-93
2023/07/27 09:17:13;;;;;;;1.80;1.70;;;;;;;18.05;100.00;100312.97;4923773;29;20063;-94
2023/07/27 09:19:42;;;;;;;4.47;1.63;;;;;;;18.29;100.00;100321.38;4924414;29;20028;-94
2023/07/27 09:22:08;;;;;;;1.75;1.65;;;;;;;18.35;100.00;100307.66;4921242;29;20020;-94
2023/07/27 09:24:34;;;;;;;2.00;1.70;;;;;;;18.43;100.00;100323.91;4926476;29;20012;-95
2023/07/27 09:27:01;;;;;;;2.13;1.70;;;;;;;18.32;100.00;100317.22;4927006;29;20028;-95
2023/07/27 09:29:27;;;;;;;2.25;1.60;;;;;;;18.34;100.00;100308.75;4925459;29;20119;-95
2023/07/27 09:31:57;;;;;;;2.40;1.83;;;;;;;18.29;100.00;100299.66;4917793;29;20059;-94
2023/07/27 09:34:24;;;;;;;3.33;1.95;;;;;;;18.16;100.00;100314.22;4917966;29;20034;-95
2023/07/27 09:36:52;;;;;;;1.87;1.77;;;;;;;18.03;100.00;100313.28;4915820;29;20437;-93
2023/07/27 09:39:17;;;;;;;1.80;1.70;;;;;;;18.00;100.00;100313.91;4918439;29;20288;-94
2023/07/27 09:41:44;;;;;;;2.20;1.80;;;;;;;18.25;100.00;100325.06;4938881;29;20480;-94
2023/07/27 09:44:17;;;;;;;3.85;2.85;;;;;;;18.33;100.00;100315.31;4920394;29;20111;-95
2023/07/27 09:46:44;;;;;;;2.47;1.90;;;;;;;18.15;100.00;100318.06;4931135;29;20043;-93
2023/07/27 09:49:11;;;;;;;4.72;2.40;;;;;;;18.23;100.00;100319.97;4928158;29;20030;-93
2023/07/27 09:51:37;;;;;;;2.00;1.90;;;;;;;18.16;100.00;100325.88;4919826;29;20043;-94
2023/07/27 09:54:04;;;;;;;3.40;1.90;;;;;;;18.15;100.00;100313.44;4919583;29;20296;-94
2023/07/27 09:56:31;;;;;;;1.50;1.40;;;;;;;18.22;100.00;100321.06;4919146;29;20024;-94
2023/07/27 09:58:57;;;;;;;3.15;1.85;;;;;;;18.38;100.00;100315.13;4919441;29;20024;-94
2023/07/27 10:01:22;;;;;;;2.95;1.70;;;;;;;18.45;100.00;100313.53;4919087;29;20058;-93
2023/07/27 10:03:48;;;;;;;2.17;1.70;;;;;;;18.48;100.00;100306.66;4919476;29;20024;-93
2023/07/27 10:06:17;;;;;;;2.73;1.80;;;;;;;18.67;100.00;100324.44;4917679;29;20520;-93
2023/07/27 10:08:44;;;;;;;2.05;1.95;;;;;;;18.78;100.00;100328.41;4919261;29;20044;-93
2023/07/27 10:11:10;;;;;;;1.95;1.85;;;;;;;18.67;100.00;100311.69;4918006;29;20042;-94
2023/07/27 10:13:41;;;;;;;1.97;1.87;;;;;;;18.83;100.00;100320.06;4919806;29;20495;-94
2023/07/27 10:16:11;;;;;;;2.28;2.10;;;;;;;19.22;100.00;100330.94;4917515;29;20127;-94
2023/07/27 10:18:42;;;;;;;2.00;1.90;;;;;;;19.30;100.00;100326.59;4919423;29;20032;-94
2023/07/27 10:21:25;;;;;;;1.50;1.40;;;;;;;19.35;100.00;100316.31;4918609;29;20040;-94
2023/07/27 10:24:03;;;;;;;2.00;1.25;;;;;;;19.22;100.00;100323.59;4919221;29;20032;-94
2023/07/27 10:26:42;;;;;;;1.30;1.20;;;;;;;19.06;100.00;100328.81;4917258;29;20083;-94
2023/07/27 10:29:15;;;;;;;1.40;1.30;;;;;;;18.93;100.00;100318.91;4920640;29;20052;-93
2023/07/27 10:31:44;;;;;;;1.42;1.33;;;;;;;19.06;100.00;100330.72;4919186;29;20051;-94
2023/07/27 10:34:17;;;;;;;1.40;1.30;;;;;;;19.13;100.00;100325.56;4922647;29;20020;-94
2023/07/27 10:36:57;;;;;;;1.77;1.47;;;;;;;19.31;100.00;100333.63;4917534;29;20288;-94
2023/07/27 10:39:30;;;;;;;1.48;1.30;;;;;;;19.27;100.00;100328.03;4918163;29;20020;-94
2023/07/27 10:42:13;;;;;;;1.35;1.25;;;;;;;19.27;100.00;100338.88;4918760;29;20039;-95
2023/07/27 10:44:46;;;;;;;1.70;1.10;;;;;;;19.12;100.00;100323.97;4917732;29;20058;-94
2023/07/27 10:47:22;;;;;;;1.65;1.33;;;;;;;19.14;100.00;100329.88;4917724;29;20032;-95
2023/07/27 10:49:50;;;;;;;3.35;1.38;;;;;;;19.20;100.00;100323.13;4918710;29;20032;-95
2023/07/27 10:52:24;;;;;;;1.45;1.10;;;;;;;19.15;100.00;100326.03;4917538;29;20029;-94
2023/07/27 10:54:51;;;;;;;1.50;1.40;;;;;;;19.16;100.00;100333.06;4918845;29;20044;-94
2023/07/27 10:57:17;;;;;;;1.27;1.17;;;;;;;19.26;100.00;100336.50;4917552;29;20024;-95
2023/07/27 10:59:46;;;;;;;1.20;1.10;;;;;;;19.13;100.00;100339.16;4925517;29;20032;-93
2023/07/27 11:02:16;;;;;;;1.40;1.30;;;;;;;19.22;100.00;100331.72;4937799;29;20292;-94
2023/07/27 11:04:42;;;;;;;1.38;1.20;;;;;;;19.24;100.00;100334.13;4923740;29;20028;-95
2023/07/27 11:07:11;;;;;;;1.95;1.10;;;;;;;19.18;100.00;100314.50;4931682;29;20031;-94
2023/07/27 11:09:38;;;;;;;1.42;1.30;;;;;;;19.12;100.00;100336.75;4930346;29;20035;-95
2023/07/27 11:12:04;;;;;;;1.40;1.25;;;;;;;18.98;100.00;100331.56;4921508;29;20528;-95
2023/07/27 11:14:30;;;;;;;1.92;1.30;;;;;;;18.87;100.00;100315.59;4920331;29;20028;-95
2023/07/27 11:16:56;;;;;;;1.50;1.40;;;;;;;19.04;100.00;100331.03;4920072;29;20484;-95
2023/07/27 11:19:23;;;;;;;1.25;1.13;;;;;;;19.10;100.00;100334.38;4916779;29;20032;-94